sensor_id;sensor_type;location;lat;lon;timestamp;temperature;humidity
52139;DHT22;38131;53.256;6.460;2022-07-23T00:01:55;15.40;99.90
52139;DHT22;38131;53.256;6.460;2022-07-23T00:04:21;15.50;99.90
52139;DHT22;38131;53.256;6.460;2022-07-23T00:06:47;14.90;99.90
52139;DHT22;38131;53.256;6.460;2022-07-23T00:09:15;16.00;99.90
52139;DHT22;38131;53.256;6.460;2022-07-23T00:11:41;16.00;99.90
52139;DHT22;38131;53.256;6.460;2022-07-23T00:14:08;14.90;99.90
52139;DHT22;38131;53.256;6.460;2022-07-23T00:16:33;14.90;99.90
52139;DHT22;38131;53.256;6.460;2022-07-23T00:18:59;15.60;99.90
52139;DHT22;38131;53.256;6.460;2022-07-23T00:21:27;14.90;99.90
52139;DHT22;38131;53.256;6.460;2022-07-23T00:23:52;14.90;99.90
52139;DHT22;38131;53.256;6.460;2022-07-23T00:26:18;15.30;99.90
52139;DHT22;38131;53.256;6.460;2022-07-23T00:28:45;14.80;99.90
52139;DHT22;38131;53.256;6.460;2022-07-23T00:31:11;14.80;99.90
52139;DHT22;38131;53.256;6.460;2022-07-23T00:33:36;14.80;99.90
52139;DHT22;38131;53.256;6.460;2022-07-23T00:36:22;14.80;99.90
52139;DHT22;38131;53.256;6.460;2022-07-23T00:38:49;14.80;99.90
52139;DHT22;38131;53.256;6.460;2022-07-23T00:41:15;14.80;99.90
52139;DHT22;38131;53.256;6.460;2022-07-23T00:43:42;14.80;99.90
52139;DHT22;38131;53.256;6.460;2022-07-23T00:46:08;14.70;99.90
52139;DHT22;38131;53.256;6.460;2022-07-23T00:48:40;14.70;99.90
52139;DHT22;38131;53.256;6.460;2022-07-23T00:51:06;15.40;99.90
52139;DHT22;38131;53.256;6.460;2022-07-23T00:53:48;14.70;99.90
52139;DHT22;38131;53.256;6.460;2022-07-23T00:56:14;15.70;99.90
52139;DHT22;38131;53.256;6.460;2022-07-23T00:58:42;15.70;99.90
52139;DHT22;38131;53.256;6.460;2022-07-23T01:01:08;14.70;99.90
52139;DHT22;38131;53.256;6.460;2022-07-23T01:03:34;14.70;99.90
52139;DHT22;38131;53.256;6.460;2022-07-23T01:06:00;14.70;99.90
52139;DHT22;38131;53.256;6.460;2022-07-23T01:08:30;14.60;99.90
52139;DHT22;38131;53.256;6.460;2022-07-23T01:10:56;14.70;99.90
52139;DHT22;38131;53.256;6.460;2022-07-23T01:13:25;14.60;99.90
52139;DHT22;38131;53.256;6.460;2022-07-23T01:15:51;14.60;99.90
52139;DHT22;38131;53.256;6.460;2022-07-23T01:18:17;14.60;99.90
52139;DHT22;38131;53.256;6.460;2022-07-23T01:20:54;14.60;99.90
52139;DHT22;38131;53.256;6.460;2022-07-23T01:23:19;14.80;99.90
52139;DHT22;38131;53.256;6.460;2022-07-23T01:25:52;14.50;99.90
52139;DHT22;38131;53.256;6.460;2022-07-23T01:28:18;15.30;99.90
52139;DHT22;38131;53.256;6.460;2022-07-23T01:30:45;14.50;99.90
52139;DHT22;38131;53.256;6.460;2022-07-23T01:33:11;15.50;99.90
52139;DHT22;38131;53.256;6.460;2022-07-23T01:35:39;14.80;99.90
52139;DHT22;38131;53.256;6.460;2022-07-23T01:38:06;15.70;99.90
52139;DHT22;38131;53.256;6.460;2022-07-23T01:40:32;14.50;99.90
52139;DHT22;38131;53.256;6.460;2022-07-23T01:42:59;14.40;99.90
52139;DHT22;38131;53.256;6.460;2022-07-23T01:45:28;14.90;99.90
52139;DHT22;38131;53.256;6.460;2022-07-23T01:47:53;15.10;99.90
52139;DHT22;38131;53.256;6.460;2022-07-23T01:50:21;14.40;99.90
52139;DHT22;38131;53.256;6.460;2022-07-23T01:52:47;15.20;99.90
52139;DHT22;38131;53.256;6.460;2022-07-23T01:55:27;14.40;99.90
52139;DHT22;38131;53.256;6.460;2022-07-23T01:57:53;15.40;99.90
52139;DHT22;38131;53.256;6.460;2022-07-23T02:00:18;14.30;99.90
52139;DHT22;38131;53.256;6.460;2022-07-23T02:02:45;14.30;99.90
52139;DHT22;38131;53.256;6.460;2022-07-23T02:05:11;15.60;99.90
52139;DHT22;38131;53.256;6.460;2022-07-23T02:07:37;14.30;99.90
52139;DHT22;38131;53.256;6.460;2022-07-23T02:10:03;14.40;99.90
52139;DHT22;38131;53.256;6.460;2022-07-23T02:12:31;14.40;99.90
52139;DHT22;38131;53.256;6.460;2022-07-23T02:14:56;14.40;99.90
52139;DHT22;38131;53.256;6.460;2022-07-23T02:17:22;14.40;99.90
52139;DHT22;38131;53.256;6.460;2022-07-23T02:19:51;14.30;99.90
52139;DHT22;38131;53.256;6.460;2022-07-23T02:22:17;15.40;99.90
52139;DHT22;38131;53.256;6.460;2022-07-23T02:24:42;14.40;99.90
52139;DHT22;38131;53.256;6.460;2022-07-23T02:27:19;14.40;99.90
52139;DHT22;38131;53.256;6.460;2022-07-23T02:29:45;14.40;99.90
52139;DHT22;38131;53.256;6.460;2022-07-23T02:32:11;15.00;99.90
52139;DHT22;38131;53.256;6.460;2022-07-23T02:34:37;15.20;99.90
52139;DHT22;38131;53.256;6.460;2022-07-23T02:37:03;15.20;99.90
52139;DHT22;38131;53.256;6.460;2022-07-23T02:39:28;14.50;99.90
52139;DHT22;38131;53.256;6.460;2022-07-23T02:42:03;14.90;99.90
52139;DHT22;38131;53.256;6.460;2022-07-23T02:44:29;14.50;99.90
52139;DHT22;38131;53.256;6.460;2022-07-23T02:46:55;15.70;99.90
52139;DHT22;38131;53.256;6.460;2022-07-23T02:49:21;15.50;99.90
52139;DHT22;38131;53.256;6.460;2022-07-23T02:51:47;14.50;99.90
52139;DHT22;38131;53.256;6.460;2022-07-23T02:54:13;14.50;99.90
52139;DHT22;38131;53.256;6.460;2022-07-23T02:56:38;15.70;99.90
52139;DHT22;38131;53.256;6.460;2022-07-23T02:59:04;14.50;99.90
52139;DHT22;38131;53.256;6.460;2022-07-23T03:01:30;14.60;99.90
52139;DHT22;38131;53.256;6.460;2022-07-23T03:03:56;15.30;99.90
52139;DHT22;38131;53.256;6.460;2022-07-23T03:06:22;14.50;99.90
52139;DHT22;38131;53.256;6.460;2022-07-23T03:08:48;14.50;99.90
52139;DHT22;38131;53.256;6.460;2022-07-23T03:11:13;14.50;99.90
52139;DHT22;38131;53.256;6.460;2022-07-23T03:13:40;14.70;99.90
52139;DHT22;38131;53.256;6.460;2022-07-23T03:16:07;14.50;99.90
52139;DHT22;38131;53.256;6.460;2022-07-23T03:18:43;14.50;99.90
52139;DHT22;38131;53.256;6.460;2022-07-23T03:21:08;15.10;99.90
52139;DHT22;38131;53.256;6.460;2022-07-23T03:23:34;14.40;99.90
52139;DHT22;38131;53.256;6.460;2022-07-23T03:26:02;14.40;99.90
52139;DHT22;38131;53.256;6.460;2022-07-23T03:28:28;14.40;99.90
52139;DHT22;38131;53.256;6.460;2022-07-23T03:30:54;15.70;99.90
52139;DHT22;38131;53.256;6.460;2022-07-23T03:33:20;14.40;99.90
52139;DHT22;38131;53.256;6.460;2022-07-23T03:35:47;14.30;99.90
52139;DHT22;38131;53.256;6.460;2022-07-23T03:38:13;15.40;99.90
52139;DHT22;38131;53.256;6.460;2022-07-23T03:40:40;14.50;99.90
52139;DHT22;38131;53.256;6.460;2022-07-23T03:43:06;14.40;99.90
52139;DHT22;38131;53.256;6.460;2022-07-23T03:45:35;14.40;99.90
52139;DHT22;38131;53.256;6.460;2022-07-23T03:48:02;14.90;99.90
52139;DHT22;38131;53.256;6.460;2022-07-23T03:50:30;14.40;99.90
52139;DHT22;38131;53.256;6.460;2022-07-23T03:52:56;14.40;99.90
52139;DHT22;38131;53.256;6.460;2022-07-23T03:55:22;14.40;99.90
52139;DHT22;38131;53.256;6.460;2022-07-23T04:00:16;14.40;99.90
52139;DHT22;38131;53.256;6.460;2022-07-23T04:02:42;14.40;99.90
52139;DHT22;38131;53.256;6.460;2022-07-23T04:05:09;14.40;99.90
52139;DHT22;38131;53.256;6.460;2022-07-23T04:07:38;14.50;99.90
52139;DHT22;38131;53.256;6.460;2022-07-23T04:10:17;14.40;99.90
52139;DHT22;38131;53.256;6.460;2022-07-23T04:12:43;14.40;99.90
52139;DHT22;38131;53.256;6.460;2022-07-23T04:15:11;14.40;99.90
52139;DHT22;38131;53.256;6.460;2022-07-23T04:17:37;14.40;99.90
52139;DHT22;38131;53.256;6.460;2022-07-23T04:20:05;14.40;99.90
52139;DHT22;38131;53.256;6.460;2022-07-23T04:22:38;14.50;99.90
52139;DHT22;38131;53.256;6.460;2022-07-23T04:25:04;14.40;99.90
52139;DHT22;38131;53.256;6.460;2022-07-23T04:27:30;14.50;99.90
52139;DHT22;38131;53.256;6.460;2022-07-23T04:29:58;15.60;99.90
52139;DHT22;38131;53.256;6.460;2022-07-23T04:32:24;14.40;99.90
52139;DHT22;38131;53.256;6.460;2022-07-23T04:34:53;14.70;99.90
52139;DHT22;38131;53.256;6.460;2022-07-23T04:37:22;14.50;99.90
52139;DHT22;38131;53.256;6.460;2022-07-23T04:39:48;14.50;99.90
52139;DHT22;38131;53.256;6.460;2022-07-23T04:42:15;15.20;99.90
52139;DHT22;38131;53.256;6.460;2022-07-23T04:44:41;14.50;99.90
52139;DHT22;38131;53.256;6.460;2022-07-23T04:47:08;14.50;99.90
52139;DHT22;38131;53.256;6.460;2022-07-23T04:49:36;14.60;99.90
52139;DHT22;38131;53.256;6.460;2022-07-23T04:52:03;14.60;99.90
52139;DHT22;38131;53.256;6.460;2022-07-23T04:54:29;14.60;99.90
52139;DHT22;38131;53.256;6.460;2022-07-23T04:56:56;14.60;99.90
52139;DHT22;38131;53.256;6.460;2022-07-23T04:59:22;15.20;99.90
52139;DHT22;38131;53.256;6.460;2022-07-23T05:01:48;14.70;99.90
52139;DHT22;38131;53.256;6.460;2022-07-23T05:04:21;14.20;99.90
52139;DHT22;38131;53.256;6.460;2022-07-23T05:06:47;14.80;99.90
52139;DHT22;38131;53.256;6.460;2022-07-23T05:09:15;15.70;99.90
52139;DHT22;38131;53.256;6.460;2022-07-23T05:11:40;14.90;99.90
52139;DHT22;38131;53.256;6.460;2022-07-23T05:14:15;14.90;99.90
52139;DHT22;38131;53.256;6.460;2022-07-23T05:16:41;15.80;99.90
52139;DHT22;38131;53.256;6.460;2022-07-23T05:19:07;14.90;99.90
52139;DHT22;38131;53.256;6.460;2022-07-23T05:21:43;14.90;99.90
52139;DHT22;38131;53.256;6.460;2022-07-23T05:24:09;14.90;99.90
52139;DHT22;38131;53.256;6.460;2022-07-23T05:26:37;14.80;99.90
52139;DHT22;38131;53.256;6.460;2022-07-23T05:29:03;14.80;99.90
52139;DHT22;38131;53.256;6.460;2022-07-23T05:31:31;14.80;99.90
52139;DHT22;38131;53.256;6.460;2022-07-23T05:33:57;14.90;99.90
52139;DHT22;38131;53.256;6.460;2022-07-23T05:36:23;15.00;99.90
52139;DHT22;38131;53.256;6.460;2022-07-23T05:38:48;15.00;99.90
52139;DHT22;38131;53.256;6.460;2022-07-23T05:41:14;15.70;99.90
52139;DHT22;38131;53.256;6.460;2022-07-23T05:43:40;15.10;99.90
52139;DHT22;38131;53.256;6.460;2022-07-23T05:46:06;15.10;99.90
52139;DHT22;38131;53.256;6.460;2022-07-23T05:48:31;15.20;99.90
52139;DHT22;38131;53.256;6.460;2022-07-23T05:51:01;16.10;99.90
52139;DHT22;38131;53.256;6.460;2022-07-23T05:53:28;15.30;99.90
52139;DHT22;38131;53.256;6.460;2022-07-23T05:55:54;15.80;99.90
52139;DHT22;38131;53.256;6.460;2022-07-23T06:01:34;15.30;99.90
52139;DHT22;38131;53.256;6.460;2022-07-23T06:04:00;15.30;99.90
52139;DHT22;38131;53.256;6.460;2022-07-23T06:06:26;15.30;99.90
52139;DHT22;38131;53.256;6.460;2022-07-23T06:12:33;15.40;99.90
52139;DHT22;38131;53.256;6.460;2022-07-23T06:15:01;15.50;99.90
52139;DHT22;38131;53.256;6.460;2022-07-23T06:17:27;15.50;99.90
52139;DHT22;38131;53.256;6.460;2022-07-23T06:19:53;15.50;99.90
52139;DHT22;38131;53.256;6.460;2022-07-23T06:22:20;16.70;99.90
52139;DHT22;38131;53.256;6.460;2022-07-23T06:24:47;15.60;99.90
52139;DHT22;38131;53.256;6.460;2022-07-23T06:27:13;16.90;99.90
52139;DHT22;38131;53.256;6.460;2022-07-23T06:29:39;15.10;99.90
52139;DHT22;38131;53.256;6.460;2022-07-23T06:32:07;15.70;99.90
52139;DHT22;38131;53.256;6.460;2022-07-23T06:34:33;15.70;99.90
52139;DHT22;38131;53.256;6.460;2022-07-23T06:36:59;15.70;99.90
52139;DHT22;38131;53.256;6.460;2022-07-23T06:39:25;16.50;99.90
52139;DHT22;38131;53.256;6.460;2022-07-23T06:41:51;16.60;99.90
52139;DHT22;38131;53.256;6.460;2022-07-23T06:44:17;15.80;99.90
52139;DHT22;38131;53.256;6.460;2022-07-23T06:46:44;16.10;99.90
52139;DHT22;38131;53.256;6.460;2022-07-23T06:49:10;16.60;99.90
52139;DHT22;38131;53.256;6.460;2022-07-23T06:51:37;16.80;99.90
52139;DHT22;38131;53.256;6.460;2022-07-23T06:54:03;16.00;99.90
52139;DHT22;38131;53.256;6.460;2022-07-23T06:56:30;16.10;99.90
52139;DHT22;38131;53.256;6.460;2022-07-23T06:58:55;16.10;99.90
52139;DHT22;38131;53.256;6.460;2022-07-23T07:01:38;16.20;99.90
52139;DHT22;38131;53.256;6.460;2022-07-23T07:04:04;16.40;99.90
52139;DHT22;38131;53.256;6.460;2022-07-23T07:06:30;16.50;99.90
52139;DHT22;38131;53.256;6.460;2022-07-23T07:08:57;16.60;99.90
52139;DHT22;38131;53.256;6.460;2022-07-23T07:11:22;16.80;99.90
52139;DHT22;38131;53.256;6.460;2022-07-23T07:13:49;16.90;99.90
52139;DHT22;38131;53.256;6.460;2022-07-23T07:16:41;17.00;99.90
52139;DHT22;38131;53.256;6.460;2022-07-23T07:19:09;17.10;99.90
52139;DHT22;38131;53.256;6.460;2022-07-23T07:21:35;17.10;99.90
52139;DHT22;38131;53.256;6.460;2022-07-23T07:24:01;17.20;99.90
52139;DHT22;38131;53.256;6.460;2022-07-23T07:26:30;17.30;99.90
52139;DHT22;38131;53.256;6.460;2022-07-23T07:28:59;17.50;99.90
52139;DHT22;38131;53.256;6.460;2022-07-23T07:31:25;17.60;99.90
52139;DHT22;38131;53.256;6.460;2022-07-23T07:33:51;17.10;99.90
52139;DHT22;38131;53.256;6.460;2022-07-23T07:36:19;17.80;99.90
52139;DHT22;38131;53.256;6.460;2022-07-23T07:38:48;17.50;99.90
52139;DHT22;38131;53.256;6.460;2022-07-23T07:41:14;18.10;99.90
52139;DHT22;38131;53.256;6.460;2022-07-23T07:43:41;17.60;99.90
52139;DHT22;38131;53.256;6.460;2022-07-23T07:46:07;18.50;99.90
52139;DHT22;38131;53.256;6.460;2022-07-23T07:48:36;17.60;99.90
52139;DHT22;38131;53.256;6.460;2022-07-23T07:51:03;17.50;99.90
52139;DHT22;38131;53.256;6.460;2022-07-23T07:53:37;17.60;99.90
52139;DHT22;38131;53.256;6.460;2022-07-23T07:56:03;17.60;99.90
52139;DHT22;38131;53.256;6.460;2022-07-23T07:58:33;17.60;99.90
52139;DHT22;38131;53.256;6.460;2022-07-23T08:00:58;18.80;99.90
52139;DHT22;38131;53.256;6.460;2022-07-23T08:03:24;17.50;99.90
52139;DHT22;38131;53.256;6.460;2022-07-23T08:08:23;17.60;99.90
52139;DHT22;38131;53.256;6.460;2022-07-23T08:10:50;17.00;99.90
52139;DHT22;38131;53.256;6.460;2022-07-23T08:13:18;17.90;99.90
52139;DHT22;38131;53.256;6.460;2022-07-23T08:15:44;18.00;99.90
52139;DHT22;38131;53.256;6.460;2022-07-23T08:18:10;18.20;99.90
52139;DHT22;38131;53.256;6.460;2022-07-23T08:20:38;18.20;99.90
52139;DHT22;38131;53.256;6.460;2022-07-23T08:23:06;18.30;99.90
52139;DHT22;38131;53.256;6.460;2022-07-23T08:25:37;18.20;99.90
52139;DHT22;38131;53.256;6.460;2022-07-23T08:28:05;19.20;99.90
52139;DHT22;38131;53.256;6.460;2022-07-23T08:30:33;18.10;99.90
52139;DHT22;38131;53.256;6.460;2022-07-23T08:33:12;18.90;99.90
52139;DHT22;38131;53.256;6.460;2022-07-23T08:35:49;17.80;99.90
52139;DHT22;38131;53.256;6.460;2022-07-23T08:38:17;18.30;99.90
52139;DHT22;38131;53.256;6.460;2022-07-23T08:40:47;18.20;99.90
52139;DHT22;38131;53.256;6.460;2022-07-23T08:43:30;18.90;99.90
52139;DHT22;38131;53.256;6.460;2022-07-23T08:45:58;18.40;99.90
52139;DHT22;38131;53.256;6.460;2022-07-23T08:48:27;18.50;99.90
52139;DHT22;38131;53.256;6.460;2022-07-23T08:50:57;18.70;99.90
52139;DHT22;38131;53.256;6.460;2022-07-23T08:53:25;18.90;99.90
52139;DHT22;38131;53.256;6.460;2022-07-23T08:55:54;18.80;99.90
52139;DHT22;38131;53.256;6.460;2022-07-23T08:58:21;19.60;99.90
52139;DHT22;38131;53.256;6.460;2022-07-23T09:00:53;18.80;99.90
52139;DHT22;38131;53.256;6.460;2022-07-23T09:03:30;18.60;99.90
52139;DHT22;38131;53.256;6.460;2022-07-23T09:06:02;19.10;99.90
52139;DHT22;38131;53.256;6.460;2022-07-23T09:08:42;18.60;99.90
52139;DHT22;38131;53.256;6.460;2022-07-23T09:11:17;18.50;99.90
52139;DHT22;38131;53.256;6.460;2022-07-23T09:13:51;18.50;99.90
52139;DHT22;38131;53.256;6.460;2022-07-23T09:16:31;19.30;99.90
52139;DHT22;38131;53.256;6.460;2022-07-23T09:19:03;18.50;99.90
52139;DHT22;38131;53.256;6.460;2022-07-23T09:21:34;18.50;99.90
52139;DHT22;38131;53.256;6.460;2022-07-23T09:24:01;18.50;99.90
52139;DHT22;38131;53.256;6.460;2022-07-23T09:26:34;18.60;99.90
52139;DHT22;38131;53.256;6.460;2022-07-23T09:29:21;18.60;99.90
52139;DHT22;38131;53.256;6.460;2022-07-23T09:32:01;18.70;99.90
52139;DHT22;38131;53.256;6.460;2022-07-23T09:34:30;18.70;99.90
52139;DHT22;38131;53.256;6.460;2022-07-23T09:37:12;18.80;99.90
52139;DHT22;38131;53.256;6.460;2022-07-23T09:39:53;18.80;99.90
52139;DHT22;38131;53.256;6.460;2022-07-23T09:42:40;18.90;99.90
52139;DHT22;38131;53.256;6.460;2022-07-23T09:45:22;18.90;99.90
52139;DHT22;38131;53.256;6.460;2022-07-23T09:55:31;18.90;99.90
52139;DHT22;38131;53.256;6.460;2022-07-23T09:58:06;18.90;99.90
52139;DHT22;38131;53.256;6.460;2022-07-23T10:00:42;18.80;99.90
52139;DHT22;38131;53.256;6.460;2022-07-23T10:03:13;18.70;99.90
52139;DHT22;38131;53.256;6.460;2022-07-23T10:05:41;18.10;99.90
52139;DHT22;38131;53.256;6.460;2022-07-23T10:08:11;18.60;99.90
52139;DHT22;38131;53.256;6.460;2022-07-23T10:10:39;18.60;99.90
52139;DHT22;38131;53.256;6.460;2022-07-23T10:13:05;18.80;99.90
52139;DHT22;38131;53.256;6.460;2022-07-23T10:15:41;18.60;99.90
52139;DHT22;38131;53.256;6.460;2022-07-23T10:18:10;18.60;99.90
52139;DHT22;38131;53.256;6.460;2022-07-23T10:20:40;18.80;99.90
52139;DHT22;38131;53.256;6.460;2022-07-23T10:23:28;18.60;99.90
52139;DHT22;38131;53.256;6.460;2022-07-23T10:26:09;18.60;99.90
52139;DHT22;38131;53.256;6.460;2022-07-23T10:29:09;18.70;99.90
52139;DHT22;38131;53.256;6.460;2022-07-23T10:31:56;18.70;99.90
52139;DHT22;38131;53.256;6.460;2022-07-23T10:37:16;18.90;99.90
52139;DHT22;38131;53.256;6.460;2022-07-23T10:40:12;18.90;99.90
52139;DHT22;38131;53.256;6.460;2022-07-23T10:42:38;19.10;99.90
52139;DHT22;38131;53.256;6.460;2022-07-23T10:47:49;19.30;99.90
52139;DHT22;38131;53.256;6.460;2022-07-23T10:53:59;19.40;99.90
52139;DHT22;38131;53.256;6.460;2022-07-23T10:59:17;19.50;99.90
52139;DHT22;38131;53.256;6.460;2022-07-23T11:01:43;19.50;99.90
52139;DHT22;38131;53.256;6.460;2022-07-23T11:04:09;19.60;99.90
52139;DHT22;38131;53.256;6.460;2022-07-23T11:09:24;19.40;99.90
52139;DHT22;38131;53.256;6.460;2022-07-23T11:15:07;19.40;99.90
52139;DHT22;38131;53.256;6.460;2022-07-23T11:20:23;19.50;99.90
52139;DHT22;38131;53.256;6.460;2022-07-23T11:27:50;19.40;99.90
52139;DHT22;38131;53.256;6.460;2022-07-23T11:33:16;19.50;99.90
52139;DHT22;38131;53.256;6.460;2022-07-23T11:35:44;19.50;99.90
52139;DHT22;38131;53.256;6.460;2022-07-23T11:38:23;19.50;99.90
52139;DHT22;38131;53.256;6.460;2022-07-23T11:40:55;19.60;99.90
52139;DHT22;38131;53.256;6.460;2022-07-23T11:43:23;19.80;99.90
52139;DHT22;38131;53.256;6.460;2022-07-23T11:45:52;20.10;99.90
52139;DHT22;38131;53.256;6.460;2022-07-23T11:48:22;20.20;99.90
52139;DHT22;38131;53.256;6.460;2022-07-23T11:50:59;20.40;99.90
52139;DHT22;38131;53.256;6.460;2022-07-23T11:53:31;19.90;99.90
52139;DHT22;38131;53.256;6.460;2022-07-23T11:56:05;20.60;99.90
52139;DHT22;38131;53.256;6.460;2022-07-23T11:58:31;20.80;99.90
52139;DHT22;38131;53.256;6.460;2022-07-23T12:00:59;20.90;99.90
52139;DHT22;38131;53.256;6.460;2022-07-23T12:03:25;20.90;99.90
52139;DHT22;38131;53.256;6.460;2022-07-23T12:05:56;21.00;99.90
52139;DHT22;38131;53.256;6.460;2022-07-23T12:08:23;20.90;99.90
52139;DHT22;38131;53.256;6.460;2022-07-23T12:10:49;20.80;99.90
52139;DHT22;38131;53.256;6.460;2022-07-23T12:13:20;20.70;99.90
52139;DHT22;38131;53.256;6.460;2022-07-23T12:15:52;20.70;99.90
52139;DHT22;38131;53.256;6.460;2022-07-23T12:18:23;21.00;99.90
52139;DHT22;38131;53.256;6.460;2022-07-23T12:20:51;21.40;99.90
52139;DHT22;38131;53.256;6.460;2022-07-23T12:23:18;21.60;99.90
52139;DHT22;38131;53.256;6.460;2022-07-23T12:25:46;21.60;99.90
52139;DHT22;38131;53.256;6.460;2022-07-23T12:28:12;21.50;99.90
52139;DHT22;38131;53.256;6.460;2022-07-23T12:30:46;22.20;99.90
52139;DHT22;38131;53.256;6.460;2022-07-23T12:33:25;21.80;99.90
52139;DHT22;38131;53.256;6.460;2022-07-23T12:35:56;21.90;99.90
52139;DHT22;38131;53.256;6.460;2022-07-23T12:38:23;22.10;99.90
52139;DHT22;38131;53.256;6.460;2022-07-23T12:40:50;22.30;99.90
52139;DHT22;38131;53.256;6.460;2022-07-23T12:43:31;22.30;99.90
52139;DHT22;38131;53.256;6.460;2022-07-23T12:46:14;22.40;99.90
52139;DHT22;38131;53.256;6.460;2022-07-23T12:48:51;22.20;99.90
52139;DHT22;38131;53.256;6.460;2022-07-23T12:51:29;21.90;99.90
52139;DHT22;38131;53.256;6.460;2022-07-23T12:54:08;21.90;99.90
52139;DHT22;38131;53.256;6.460;2022-07-23T12:56:36;21.90;99.90
52139;DHT22;38131;53.256;6.460;2022-07-23T12:59:08;22.00;99.90
52139;DHT22;38131;53.256;6.460;2022-07-23T13:01:37;22.00;99.90
52139;DHT22;38131;53.256;6.460;2022-07-23T13:06:41;21.90;99.90
52139;DHT22;38131;53.256;6.460;2022-07-23T13:09:10;21.80;99.90
52139;DHT22;38131;53.256;6.460;2022-07-23T13:11:36;21.90;99.90
52139;DHT22;38131;53.256;6.460;2022-07-23T13:14:05;22.00;99.90
52139;DHT22;38131;53.256;6.460;2022-07-23T13:16:31;21.80;99.90
52139;DHT22;38131;53.256;6.460;2022-07-23T13:18:58;21.80;99.90
52139;DHT22;38131;53.256;6.460;2022-07-23T13:21:27;21.70;99.90
52139;DHT22;38131;53.256;6.460;2022-07-23T13:23:54;21.60;99.90
52139;DHT22;38131;53.256;6.460;2022-07-23T13:26:20;21.50;99.90
52139;DHT22;38131;53.256;6.460;2022-07-23T13:29:01;21.70;99.90
52139;DHT22;38131;53.256;6.460;2022-07-23T13:31:26;22.40;99.90
52139;DHT22;38131;53.256;6.460;2022-07-23T13:33:53;21.90;99.90
52139;DHT22;38131;53.256;6.460;2022-07-23T13:36:43;21.90;99.90
52139;DHT22;38131;53.256;6.460;2022-07-23T13:39:09;21.80;99.90
52139;DHT22;38131;53.256;6.460;2022-07-23T13:41:35;21.90;99.90
52139;DHT22;38131;53.256;6.460;2022-07-23T13:47:42;21.80;99.90
52139;DHT22;38131;53.256;6.460;2022-07-23T13:50:20;22.00;99.90
52139;DHT22;38131;53.256;6.460;2022-07-23T13:52:46;22.00;99.90
52139;DHT22;38131;53.256;6.460;2022-07-23T13:55:12;22.10;99.90
52139;DHT22;38131;53.256;6.460;2022-07-23T13:58:01;22.10;99.90
52139;DHT22;38131;53.256;6.460;2022-07-23T14:00:28;22.00;99.90
52139;DHT22;38131;53.256;6.460;2022-07-23T14:02:54;21.90;99.90
52139;DHT22;38131;53.256;6.460;2022-07-23T14:05:24;21.90;99.90
52139;DHT22;38131;53.256;6.460;2022-07-23T14:07:51;21.90;99.90
52139;DHT22;38131;53.256;6.460;2022-07-23T14:10:19;22.30;99.90
52139;DHT22;38131;53.256;6.460;2022-07-23T14:12:49;22.40;99.90
52139;DHT22;38131;53.256;6.460;2022-07-23T14:15:16;21.70;99.90
52139;DHT22;38131;53.256;6.460;2022-07-23T14:17:46;21.70;99.90
52139;DHT22;38131;53.256;6.460;2022-07-23T14:20:14;21.80;99.90
52139;DHT22;38131;53.256;6.460;2022-07-23T14:22:43;21.80;99.90
52139;DHT22;38131;53.256;6.460;2022-07-23T14:25:10;21.80;99.90
52139;DHT22;38131;53.256;6.460;2022-07-23T14:28:04;21.90;99.90
52139;DHT22;38131;53.256;6.460;2022-07-23T14:30:29;21.90;99.90
52139;DHT22;38131;53.256;6.460;2022-07-23T14:32:56;21.90;99.90
52139;DHT22;38131;53.256;6.460;2022-07-23T14:35:22;21.90;99.90
52139;DHT22;38131;53.256;6.460;2022-07-23T14:37:49;22.00;99.90
52139;DHT22;38131;53.256;6.460;2022-07-23T14:40:15;22.00;99.90
52139;DHT22;38131;53.256;6.460;2022-07-23T14:42:40;21.20;99.90
52139;DHT22;38131;53.256;6.460;2022-07-23T14:45:07;21.90;99.90
52139;DHT22;38131;53.256;6.460;2022-07-23T14:47:32;21.80;99.90
52139;DHT22;38131;53.256;6.460;2022-07-23T14:50:05;22.50;99.90
52139;DHT22;38131;53.256;6.460;2022-07-23T14:52:33;21.80;99.90
52139;DHT22;38131;53.256;6.460;2022-07-23T14:54:59;21.90;99.90
52139;DHT22;38131;53.256;6.460;2022-07-23T15:01:15;21.90;99.90
52139;DHT22;38131;53.256;6.460;2022-07-23T15:03:41;21.90;99.90
52139;DHT22;38131;53.256;6.460;2022-07-23T15:09:30;22.00;99.90
52139;DHT22;38131;53.256;6.460;2022-07-23T15:11:56;22.00;99.90
52139;DHT22;38131;53.256;6.460;2022-07-23T15:14:22;22.00;99.90
52139;DHT22;38131;53.256;6.460;2022-07-23T15:17:16;22.00;99.90
52139;DHT22;38131;53.256;6.460;2022-07-23T15:19:41;21.90;99.90
52139;DHT22;38131;53.256;6.460;2022-07-23T15:22:14;22.00;99.90
52139;DHT22;38131;53.256;6.460;2022-07-23T15:24:40;22.00;99.90
52139;DHT22;38131;53.256;6.460;2022-07-23T15:27:32;22.00;99.90
52139;DHT22;38131;53.256;6.460;2022-07-23T15:29:57;22.00;99.90
52139;DHT22;38131;53.256;6.460;2022-07-23T15:32:23;21.90;99.90
52139;DHT22;38131;53.256;6.460;2022-07-23T15:37:41;21.80;99.90
52139;DHT22;38131;53.256;6.460;2022-07-23T15:40:10;21.80;99.90
52139;DHT22;38131;53.256;6.460;2022-07-23T15:42:39;21.80;99.90
52139;DHT22;38131;53.256;6.460;2022-07-23T15:45:05;21.80;99.90
52139;DHT22;38131;53.256;6.460;2022-07-23T15:47:35;22.00;99.90
52139;DHT22;38131;53.256;6.460;2022-07-23T15:50:01;21.70;99.90
52139;DHT22;38131;53.256;6.460;2022-07-23T15:52:27;21.70;99.90
52139;DHT22;38131;53.256;6.460;2022-07-23T15:54:57;21.70;99.90
52139;DHT22;38131;53.256;6.460;2022-07-23T15:57:34;21.70;99.90
52139;DHT22;38131;53.256;6.460;2022-07-23T16:00:00;21.70;99.90
52139;DHT22;38131;53.256;6.460;2022-07-23T16:02:26;21.70;99.90
52139;DHT22;38131;53.256;6.460;2022-07-23T16:04:55;21.70;99.90
52139;DHT22;38131;53.256;6.460;2022-07-23T16:07:22;21.70;99.90
52139;DHT22;38131;53.256;6.460;2022-07-23T16:09:48;21.70;99.90
52139;DHT22;38131;53.256;6.460;2022-07-23T16:12:17;21.70;99.90
52139;DHT22;38131;53.256;6.460;2022-07-23T16:14:49;21.60;99.90
52139;DHT22;38131;53.256;6.460;2022-07-23T16:17:15;21.50;99.90
52139;DHT22;38131;53.256;6.460;2022-07-23T16:19:40;21.50;99.90
52139;DHT22;38131;53.256;6.460;2022-07-23T16:22:17;21.40;99.90
52139;DHT22;38131;53.256;6.460;2022-07-23T16:24:43;21.50;99.90
52139;DHT22;38131;53.256;6.460;2022-07-23T16:27:10;21.40;99.90
52139;DHT22;38131;53.256;6.460;2022-07-23T16:29:36;21.50;99.90
52139;DHT22;38131;53.256;6.460;2022-07-23T16:32:16;21.80;99.90
52139;DHT22;38131;53.256;6.460;2022-07-23T16:34:42;21.40;99.90
52139;DHT22;38131;53.256;6.460;2022-07-23T16:37:10;21.40;99.90
52139;DHT22;38131;53.256;6.460;2022-07-23T16:39:36;21.30;99.90
52139;DHT22;38131;53.256;6.460;2022-07-23T16:42:32;21.30;99.90
52139;DHT22;38131;53.256;6.460;2022-07-23T16:44:58;20.70;99.90
52139;DHT22;38131;53.256;6.460;2022-07-23T16:47:24;21.30;99.90